createdAt,value
2018-08-10T00:01:24.128Z,66.64
2018-08-10T00:04:01.106Z,66.50
2018-08-10T00:06:29.942Z,66.15
2018-08-10T00:08:58.389Z,66.89
2018-08-10T00:11:27.529Z,65.79
2018-08-10T00:13:57.212Z,66.13
2018-08-10T00:16:36.918Z,66.15
2018-08-10T00:19:13.402Z,66.85
2018-08-10T00:21:42.574Z,66.73
2018-08-10T00:24:11.898Z,65.39
2018-08-10T00:26:44.684Z,65.75
2018-08-10T00:29:18.361Z,65.41
2018-08-10T00:31:47.580Z,65.70
2018-08-10T00:34:20.067Z,65.66
2018-08-10T00:36:50.050Z,64.54
2018-08-10T00:39:19.396Z,64.80
2018-08-10T00:41:49.322Z,64.27
2018-08-10T00:44:18.663Z,65.27
2018-08-10T00:46:49.404Z,65.54
2018-08-10T00:49:17.634Z,67.16
2018-08-10T00:51:45.964Z,66.23
2018-08-10T00:54:15.804Z,62.86
2018-08-10T00:56:44.251Z,61.92
2018-08-10T00:59:15.106Z,61.11
2018-08-10T01:01:44.973Z,61.51
2018-08-10T01:04:15.531Z,60.88
2018-08-10T01:06:45.903Z,60.58
2018-08-10T01:09:15.806Z,62.05
2018-08-10T01:11:46.905Z,61.87
2018-08-10T01:14:17.015Z,61.98
2018-08-10T01:16:45.122Z,61.96
2018-08-10T01:19:13.311Z,62.13
2018-08-10T01:21:41.348Z,62.36
2018-08-10T01:24:09.491Z,62.14
2018-08-10T01:26:37.568Z,61.98
2018-08-10T01:29:05.768Z,61.76
2018-08-10T01:31:33.891Z,62.61
2018-08-10T01:34:01.966Z,62.45
2018-08-10T01:36:30.059Z,62.78
2018-08-10T01:38:58.133Z,63.61
2018-08-10T01:41:26.222Z,63.00
2018-08-10T01:43:54.379Z,63.44
2018-08-10T01:46:29.002Z,63.71
2018-08-10T01:48:57.138Z,63.53
2018-08-10T01:51:25.295Z,64.74
2018-08-10T01:53:53.399Z,65.08
2018-08-10T01:56:21.519Z,65.60
2018-08-10T01:58:49.610Z,65.41
2018-08-10T02:01:17.788Z,65.13
2018-08-10T02:03:45.896Z,65.25
2018-08-10T02:06:13.993Z,65.71
2018-08-10T02:08:42.289Z,66.19
2018-08-10T02:11:10.373Z,66.20
2018-08-10T02:13:38.488Z,65.36
2018-08-10T02:16:06.585Z,65.68
2018-08-10T02:18:34.704Z,66.12
2018-08-10T02:21:02.802Z,65.73
2018-08-10T02:23:30.940Z,66.84
2018-08-10T02:25:59.067Z,67.05
2018-08-10T02:28:27.142Z,66.66
2018-08-10T02:30:55.802Z,66.88
2018-08-10T02:33:23.890Z,66.90
2018-08-10T02:35:51.985Z,67.36
2018-08-10T02:38:20.048Z,66.95
2018-08-10T02:40:48.151Z,66.79
2018-08-10T02:43:16.221Z,67.07
2018-08-10T02:45:44.347Z,67.55
2018-08-10T02:48:12.446Z,67.49
2018-08-10T02:50:40.530Z,67.82
2018-08-10T02:53:08.660Z,67.29
2018-08-10T02:55:36.752Z,68.35
2018-08-10T02:58:04.879Z,68.14
2018-08-10T03:00:32.987Z,68.42
2018-08-10T03:03:01.138Z,68.69
2018-08-10T03:05:29.229Z,68.19
2018-08-10T03:07:57.342Z,68.54
2018-08-10T03:10:25.456Z,68.76
2018-08-10T03:12:53.585Z,68.57
2018-08-10T03:15:21.627Z,67.81
2018-08-10T03:17:49.700Z,67.84
2018-08-10T03:20:17.763Z,68.47
2018-08-10T03:22:45.864Z,68.75
2018-08-10T03:25:14.767Z,69.01
2018-08-10T03:27:42.867Z,68.27
2018-08-10T03:30:11.922Z,69.47
2018-08-10T03:32:40.067Z,69.21
2018-08-10T03:35:08.230Z,69.82
2018-08-10T03:37:36.751Z,69.49
2018-08-10T03:40:06.202Z,69.81
2018-08-10T03:42:34.313Z,70.20
2018-08-10T03:45:02.371Z,70.64
2018-08-10T03:47:30.467Z,70.62
2018-08-10T03:49:58.618Z,70.33
2018-08-10T03:52:26.680Z,69.60
2018-08-10T03:54:54.791Z,70.02
2018-08-10T03:57:22.846Z,71.38
2018-08-10T03:59:50.906Z,70.35
2018-08-10T04:02:18.967Z,70.51
2018-08-10T04:04:47.014Z,70.39
2018-08-10T04:07:15.077Z,71.46
2018-08-10T04:09:43.140Z,71.01
2018-08-10T04:12:11.223Z,71.43
2018-08-10T04:14:39.286Z,71.96
2018-08-10T04:17:11.590Z,72.12
2018-08-10T04:19:39.659Z,71.96
2018-08-10T04:22:07.999Z,71.89
2018-08-10T04:24:36.068Z,71.62
2018-08-10T04:27:04.145Z,71.97
2018-08-10T04:29:32.250Z,72.54
2018-08-10T04:32:00.264Z,72.07
2018-08-10T04:34:28.324Z,72.42
2018-08-10T04:36:56.420Z,71.94
2018-08-10T04:39:24.584Z,72.72
2018-08-10T04:41:52.679Z,72.46
2018-08-10T04:44:20.731Z,72.69
2018-08-10T04:46:48.783Z,72.50
2018-08-10T04:49:16.854Z,72.92
2018-08-10T04:51:44.952Z,73.03
2018-08-10T04:54:13.009Z,73.02
2018-08-10T04:56:41.104Z,72.30
2018-08-10T04:59:09.144Z,73.47
2018-08-10T05:01:37.255Z,73.48
2018-08-10T05:04:05.326Z,73.88
2018-08-10T05:06:33.439Z,73.87
2018-08-10T05:09:01.497Z,73.80
2018-08-10T05:11:29.579Z,73.71
2018-08-10T05:13:57.651Z,73.50
2018-08-10T05:16:25.750Z,73.25
2018-08-10T05:18:53.938Z,73.99
2018-08-10T05:21:22.022Z,73.06
2018-08-10T05:23:50.095Z,72.82
2018-08-10T05:26:18.212Z,72.89
2018-08-10T05:28:46.254Z,72.38
2018-08-10T05:31:14.356Z,72.02
2018-08-10T05:33:42.443Z,71.02
2018-08-10T05:36:10.509Z,71.35
2018-08-10T05:38:38.612Z,71.50
2018-08-10T05:41:06.678Z,70.66
2018-08-10T05:43:34.764Z,71.09
2018-08-10T05:46:02.952Z,70.18
2018-08-10T05:48:35.249Z,70.97
2018-08-10T05:51:03.435Z,69.83
2018-08-10T05:53:31.487Z,69.22
2018-08-10T05:55:59.543Z,69.87
2018-08-10T05:58:27.615Z,69.35
2018-08-10T06:00:55.701Z,69.14
2018-08-10T06:03:24.735Z,69.15
2018-08-10T06:05:52.695Z,68.03
2018-08-10T06:08:20.796Z,67.75
2018-08-10T06:10:48.850Z,67.17
2018-08-10T06:13:17.039Z,67.51
2018-08-10T06:15:45.119Z,66.66
2018-08-10T06:18:13.181Z,67.46
2018-08-10T06:20:41.230Z,66.09
2018-08-10T06:23:09.311Z,66.84
2018-08-10T06:25:37.407Z,65.61
2018-08-10T06:28:05.531Z,66.24
2018-08-10T06:30:33.587Z,66.31
2018-08-10T06:33:01.657Z,65.30
2018-08-10T06:35:29.724Z,64.30
2018-08-10T06:37:57.834Z,65.28
2018-08-10T06:40:25.876Z,64.69
2018-08-10T06:42:53.944Z,64.19
2018-08-10T06:45:22.014Z,64.67
2018-08-10T06:47:50.060Z,64.10
2018-08-10T06:50:18.122Z,61.63
2018-08-10T06:52:46.189Z,62.51
2018-08-10T06:55:14.246Z,62.34
2018-08-10T06:57:42.313Z,62.68
2018-08-10T07:00:10.391Z,61.59
2018-08-10T07:02:38.446Z,61.11
2018-08-10T07:05:06.858Z,61.17
2018-08-10T07:07:34.992Z,60.24
2018-08-10T07:10:03.008Z,60.20
2018-08-10T07:12:31.083Z,59.31
2018-08-10T07:14:59.214Z,59.96
2018-08-10T07:17:27.301Z,60.72
2018-08-10T07:19:55.342Z,59.72
2018-08-10T07:22:23.434Z,60.03
2018-08-10T07:24:51.487Z,60.18
2018-08-10T07:27:19.576Z,59.74
2018-08-10T07:29:47.602Z,60.03
2018-08-10T07:32:15.663Z,59.42
2018-08-10T07:34:43.730Z,59.81
2018-08-10T07:37:11.803Z,59.52
2018-08-10T07:39:39.854Z,59.55
2018-08-10T07:42:07.912Z,58.99
2018-08-10T07:44:35.958Z,59.11
2018-08-10T07:47:04.011Z,58.74
2018-08-10T07:49:32.071Z,58.88
2018-08-10T07:52:00.173Z,59.22
2018-08-10T07:54:28.257Z,59.32
2018-08-10T07:56:56.316Z,58.63
2018-08-10T07:59:24.414Z,58.61
2018-08-10T08:01:52.491Z,57.85
2018-08-10T08:04:20.559Z,57.84
2018-08-10T08:06:48.629Z,56.83
2018-08-10T08:09:16.735Z,57.88
2018-08-10T08:11:44.787Z,56.45
2018-08-10T08:14:12.852Z,56.32
2018-08-10T08:16:40.920Z,56.31
2018-08-10T08:19:08.992Z,56.23
2018-08-10T08:21:37.064Z,55.89
2018-08-10T08:24:05.231Z,55.59
2018-08-10T08:26:39.880Z,53.77
2018-08-10T08:29:07.952Z,54.81
2018-08-10T08:31:36.031Z,55.60
2018-08-10T08:34:06.867Z,54.37
2018-08-10T08:36:35.016Z,55.69
2018-08-10T08:39:27.189Z,54.99
2018-08-10T08:41:55.261Z,53.58
2018-08-10T08:44:35.979Z,54.13
2018-08-10T08:47:05.271Z,55.12
2018-08-10T08:49:33.923Z,53.19
2018-08-10T08:52:02.105Z,51.98
2018-08-10T08:55:34.538Z,52.71
2018-08-10T08:58:02.651Z,52.98
2018-08-10T09:00:30.730Z,53.09
2018-08-10T09:02:58.870Z,51.71
2018-08-10T09:05:26.923Z,51.88
2018-08-10T09:07:55.031Z,51.34
2018-08-10T09:10:23.092Z,52.11
2018-08-10T09:12:51.148Z,53.11
2018-08-10T09:15:20.375Z,51.14
2018-08-10T09:17:49.458Z,50.15
2018-08-10T09:20:17.619Z,50.74
2018-08-10T09:22:45.615Z,51.33
2018-08-10T09:25:15.312Z,50.99
2018-08-10T09:27:43.413Z,50.71
2018-08-10T09:30:13.212Z,50.59
2018-08-10T09:32:41.661Z,50.68
2018-08-10T09:35:10.581Z,51.00
2018-08-10T09:37:38.655Z,50.87
2018-08-10T09:40:21.709Z,52.69
2018-08-10T09:42:49.766Z,52.01
2018-08-10T09:45:18.315Z,52.41
2018-08-10T09:47:47.320Z,51.71
2018-08-10T09:50:15.835Z,52.46
2018-08-10T09:52:55.795Z,50.33
2018-08-10T09:55:36.913Z,49.03
2018-08-10T09:58:09.237Z,48.96
2018-08-10T10:00:42.749Z,48.15
2018-08-10T10:03:16.636Z,49.08
2018-08-10T10:05:45.128Z,49.91
2018-08-10T10:08:13.548Z,48.46
2018-08-10T10:10:41.649Z,48.55
2018-08-10T10:13:09.699Z,50.03
2018-08-10T10:15:37.784Z,51.56
2018-08-10T10:18:08.422Z,51.12
2018-08-10T10:20:36.535Z,50.88
2018-08-10T10:23:04.604Z,48.90
2018-08-10T10:25:32.678Z,49.11
2018-08-10T10:28:00.793Z,49.39
2018-08-10T10:30:28.919Z,48.13
2018-08-10T10:32:56.994Z,48.40
2018-08-10T10:35:25.149Z,49.95
2018-08-10T10:37:53.246Z,48.79
2018-08-10T10:40:21.286Z,49.20
2018-08-10T10:42:49.493Z,48.89
2018-08-10T10:45:17.608Z,48.34
2018-08-10T10:47:46.879Z,48.53
2018-08-10T10:50:15.355Z,47.82
2018-08-10T10:52:43.495Z,48.53
2018-08-10T10:55:11.867Z,47.13
2018-08-10T10:57:40.836Z,47.20
2018-08-10T11:00:12.107Z,47.34
2018-08-10T11:02:40.436Z,46.87
2018-08-10T11:05:08.776Z,46.74
2018-08-10T11:07:37.387Z,45.75
2018-08-10T11:10:06.851Z,45.82
2018-08-10T11:12:34.907Z,47.02
2018-08-10T11:15:03.006Z,46.39
2018-08-10T11:17:31.184Z,46.45
2018-08-10T11:19:59.390Z,46.72
2018-08-10T11:22:27.590Z,47.28
2018-08-10T11:24:55.832Z,46.38
2018-08-10T11:27:24.035Z,46.03
2018-08-10T11:29:52.308Z,46.16
2018-08-10T11:32:20.503Z,45.81
2018-08-10T11:34:48.697Z,45.50
2018-08-10T11:37:16.931Z,44.93
2018-08-10T11:39:45.458Z,44.21
2018-08-10T11:42:15.635Z,44.72
2018-08-10T11:44:44.836Z,44.93
2018-08-10T11:47:13.088Z,44.65
2018-08-10T11:49:41.347Z,45.52
2018-08-10T11:52:09.620Z,43.61
2018-08-10T11:54:37.845Z,42.43
2018-08-10T11:57:06.118Z,42.37
2018-08-10T11:59:34.379Z,43.25
2018-08-10T12:02:02.708Z,42.90
2018-08-10T12:04:30.880Z,43.72
2018-08-10T12:06:59.125Z,45.05
2018-08-10T12:09:27.399Z,42.08
2018-08-10T12:11:55.683Z,41.62
2018-08-10T12:14:23.957Z,41.85
2018-08-10T12:16:52.192Z,40.76
2018-08-10T12:19:20.436Z,42.03
2018-08-10T12:21:48.671Z,41.27
2018-08-10T12:24:16.908Z,41.12
2018-08-10T12:26:45.137Z,41.89
2018-08-10T12:29:13.380Z,41.59
2018-08-10T12:31:41.627Z,40.61
2018-08-10T12:34:09.833Z,38.20
2018-08-10T12:36:38.075Z,37.97
2018-08-10T12:39:09.929Z,39.03
2018-08-10T12:41:38.169Z,39.46
2018-08-10T12:44:06.439Z,39.28
2018-08-10T12:46:34.645Z,38.91
2018-08-10T12:49:02.735Z,39.27
2018-08-10T12:51:30.941Z,39.48
2018-08-10T12:53:59.308Z,39.58
2018-08-10T12:56:27.450Z,38.43
2018-08-10T12:58:56.106Z,38.27
2018-08-10T13:01:24.297Z,38.07
2018-08-10T13:03:52.496Z,39.26
2018-08-10T13:06:20.705Z,38.36
2018-08-10T13:08:48.913Z,39.10
2018-08-10T13:11:17.150Z,38.23
2018-08-10T13:13:45.377Z,38.91
2018-08-10T13:16:13.595Z,39.08
2018-08-10T13:18:41.827Z,39.61
2018-08-10T13:21:10.050Z,39.46
2018-08-10T13:23:38.259Z,38.82
2018-08-10T13:26:06.965Z,39.00
2018-08-10T13:28:35.178Z,38.38
2018-08-10T13:31:03.531Z,38.60
2018-08-10T13:33:31.757Z,39.00
2018-08-10T13:36:00.015Z,38.42
2018-08-10T13:38:28.239Z,39.79
2018-08-10T13:40:56.745Z,39.72
2018-08-10T13:43:24.923Z,40.13
2018-08-10T13:45:53.216Z,40.41
2018-08-10T13:48:21.447Z,40.47
2018-08-10T13:50:49.683Z,40.06
2018-08-10T13:53:17.972Z,40.37
2018-08-10T13:55:46.144Z,40.35
2018-08-10T13:58:14.344Z,40.13
2018-08-10T14:00:42.589Z,40.24
2018-08-10T14:03:10.809Z,40.11
2018-08-10T14:05:39.051Z,39.58
2018-08-10T14:08:07.342Z,40.17
2018-08-10T14:10:35.567Z,39.25
2018-08-10T14:13:03.812Z,38.66
2018-08-10T14:15:32.047Z,38.14
2018-08-10T14:18:00.223Z,36.95
2018-08-10T14:20:28.412Z,36.51
2018-08-10T14:22:56.838Z,38.27
2018-08-10T14:25:25.061Z,38.36
2018-08-10T14:27:53.344Z,36.49
2018-08-10T14:30:21.480Z,36.41
2018-08-10T14:32:49.696Z,36.60
2018-08-10T14:35:17.864Z,36.83
2018-08-10T14:37:46.066Z,37.03
2018-08-10T14:40:14.323Z,37.22
2018-08-10T14:42:42.955Z,37.00
2018-08-10T14:45:13.389Z,37.20
2018-08-10T14:47:41.529Z,36.93
2018-08-10T14:50:11.421Z,35.70
2018-08-10T14:52:39.604Z,35.38
2018-08-10T14:55:09.596Z,35.66
2018-08-10T14:57:37.856Z,35.03
2018-08-10T15:00:09.335Z,35.96
2018-08-10T15:02:37.582Z,36.91
2018-08-10T15:05:05.951Z,35.84
2018-08-10T15:07:35.786Z,36.32
2018-08-10T15:10:04.712Z,36.40
2018-08-10T15:12:33.028Z,33.91
2018-08-10T15:15:00.891Z,34.16
2018-08-10T15:17:29.253Z,34.23
2018-08-10T15:19:57.365Z,34.61
2018-08-10T15:22:25.445Z,35.02
2018-08-10T15:24:53.563Z,34.86
2018-08-10T15:27:21.595Z,34.51
2018-08-10T15:29:49.645Z,33.66
2018-08-10T15:32:17.811Z,33.71
2018-08-10T15:34:45.911Z,33.58
2018-08-10T15:37:13.990Z,33.73
2018-08-10T15:39:42.061Z,33.82
2018-08-10T15:42:10.139Z,33.88
2018-08-10T15:44:38.260Z,33.28
2018-08-10T15:47:06.338Z,33.05
2018-08-10T15:49:34.425Z,33.50
2018-08-10T15:52:02.487Z,32.42
2018-08-10T15:54:30.586Z,32.45
2018-08-10T15:56:58.671Z,33.33
2018-08-10T15:59:26.744Z,33.23
2018-08-10T16:01:54.827Z,33.02
2018-08-10T16:04:22.903Z,33.44
2018-08-10T16:06:51.004Z,33.11
2018-08-10T16:09:19.067Z,33.92
2018-08-10T16:11:47.147Z,34.05
2018-08-10T16:14:15.272Z,34.48
2018-08-10T16:16:43.378Z,35.40
2018-08-10T16:19:11.493Z,35.01
2018-08-10T16:21:39.608Z,34.20
2018-08-10T16:24:07.861Z,34.48
2018-08-10T16:26:35.936Z,35.05
2018-08-10T16:29:05.813Z,34.41
2018-08-10T16:31:44.674Z,34.29
2018-08-10T16:34:13.436Z,34.65
2018-08-10T16:36:41.815Z,34.50
2018-08-10T16:39:11.747Z,33.99
2018-08-10T16:41:44.240Z,34.95
2018-08-10T16:44:16.969Z,34.34
2018-08-10T16:46:46.933Z,32.79
2018-08-10T16:49:18.531Z,33.66
2018-08-10T16:51:46.671Z,33.57
2018-08-10T16:54:15.807Z,33.72
2018-08-10T16:56:44.944Z,33.82
2018-08-10T16:59:13.274Z,34.01
2018-08-10T17:01:42.266Z,33.33
2018-08-10T17:04:11.109Z,33.96
2018-08-10T17:06:42.588Z,34.67
2018-08-10T17:09:12.720Z,35.18
2018-08-10T17:11:40.943Z,35.70
2018-08-10T17:14:09.560Z,35.70
2018-08-10T17:16:38.115Z,35.32
2018-08-10T17:19:06.682Z,35.22
2018-08-10T17:21:34.844Z,35.76
2018-08-10T17:24:07.197Z,35.77
2018-08-10T17:26:41.931Z,35.57
2018-08-10T17:29:10.164Z,35.16
2018-08-10T17:31:38.350Z,35.36
2018-08-10T17:34:06.548Z,34.62
2018-08-10T17:36:36.559Z,35.35
2018-08-10T17:39:09.521Z,35.80
2018-08-10T17:41:37.626Z,36.08
2018-08-10T17:44:05.779Z,35.87
2018-08-10T17:46:33.940Z,36.29
2018-08-10T17:49:02.038Z,36.04
2018-08-10T17:51:30.119Z,36.61
2018-08-10T17:53:58.200Z,36.64
2018-08-10T17:56:26.269Z,36.69
2018-08-10T17:58:54.459Z,37.31
2018-08-10T18:01:22.499Z,38.53
2018-08-10T18:03:50.590Z,38.24
2018-08-10T18:06:19.220Z,38.34
2018-08-10T18:08:47.496Z,38.75
2018-08-10T18:11:19.515Z,38.00
2018-08-10T18:13:50.168Z,37.82
2018-08-10T18:16:22.755Z,37.85
2018-08-10T18:19:00.090Z,38.79
2018-08-10T18:21:31.072Z,38.33
2018-08-10T18:24:00.108Z,38.41
2018-08-10T18:26:31.541Z,38.28
2018-08-10T18:29:07.385Z,39.34
2018-08-10T18:31:42.092Z,39.11
2018-08-10T18:34:17.999Z,39.21
2018-08-10T18:36:48.323Z,40.29
2018-08-10T18:39:23.408Z,40.18
2018-08-10T18:41:57.917Z,40.84
2018-08-10T18:44:30.284Z,39.68
2018-08-10T18:52:03.884Z,40.01
2018-08-10T18:54:34.568Z,40.41
2018-08-10T18:57:16.155Z,41.24
2018-08-10T18:59:49.733Z,41.59
2018-08-10T20:20:36.635Z,48.81
2018-08-10T20:23:15.223Z,49.16
2018-08-10T20:25:47.509Z,49.10
2018-08-10T20:28:19.679Z,49.06
2018-08-10T20:30:52.542Z,49.55
2018-08-10T20:33:26.710Z,49.08
2018-08-10T20:36:03.746Z,48.95
2018-08-10T20:38:43.440Z,49.46
2018-08-10T20:41:22.242Z,49.56
2018-08-10T20:44:01.801Z,50.05
2018-08-10T20:46:46.748Z,50.51
2018-08-10T20:49:32.862Z,50.57
2018-08-10T20:52:12.014Z,51.28
2018-08-10T20:54:41.686Z,52.19
2018-08-10T20:57:15.614Z,52.36
2018-08-10T21:00:02.385Z,52.42
2018-08-10T21:02:35.717Z,51.86
2018-08-10T21:05:06.800Z,51.61
2018-08-10T21:07:36.569Z,51.53
2018-08-10T21:10:13.690Z,51.79
2018-08-10T21:12:45.587Z,52.60
2018-08-10T21:15:15.086Z,52.65
2018-08-10T21:17:46.367Z,52.22
2018-08-10T21:20:16.570Z,52.57
2018-08-10T21:22:46.266Z,51.47
2018-08-10T21:25:19.397Z,52.07
2018-08-10T21:27:49.374Z,53.34
2018-08-10T21:30:19.529Z,53.59
2018-08-10T21:38:33.499Z,53.53
2018-08-10T21:41:05.879Z,54.11
2018-08-10T21:43:40.194Z,53.99
2018-08-10T21:46:08.979Z,54.03
2018-08-10T21:48:41.575Z,54.19
2018-08-10T21:51:11.674Z,54.66
2018-08-10T21:59:21.598Z,54.12
2018-08-10T22:01:51.793Z,54.78
2018-08-10T22:04:29.399Z,53.95
2018-08-10T22:07:00.416Z,55.35
2018-08-10T22:09:29.308Z,55.64
2018-08-10T22:12:05.418Z,55.35
2018-08-10T22:14:39.084Z,56.12
2018-08-10T22:17:14.265Z,56.73
2018-08-10T22:19:44.296Z,56.50
2018-08-10T22:22:15.007Z,56.11
2018-08-10T22:24:44.264Z,56.83
2018-08-10T22:27:15.318Z,56.37
2018-08-10T22:29:43.913Z,56.14
2018-08-10T22:32:17.334Z,56.90
2018-08-10T22:34:45.602Z,56.18
2018-08-10T22:37:15.780Z,56.51
2018-08-10T22:39:43.903Z,56.16
2018-08-10T22:42:11.984Z,55.99
2018-08-10T22:44:46.511Z,56.29
2018-08-10T22:47:14.641Z,56.87
2018-08-10T22:49:42.702Z,56.32
2018-08-10T22:52:10.758Z,56.73
2018-08-10T22:54:39.075Z,57.17
2018-08-10T22:57:07.163Z,56.83
2018-08-10T22:59:35.232Z,57.22
2018-08-10T23:02:03.308Z,57.82
2018-08-10T23:04:31.360Z,57.79
2018-08-10T23:06:59.793Z,57.32
2018-08-10T23:09:27.892Z,58.03
2018-08-10T23:11:55.958Z,58.16
2018-08-10T23:14:24.033Z,58.13
2018-08-10T23:16:52.122Z,57.35
2018-08-10T23:19:20.179Z,57.66
2018-08-10T23:21:48.242Z,57.92
2018-08-10T23:24:16.311Z,57.99
2018-08-10T23:26:44.385Z,58.25
2018-08-10T23:29:12.465Z,58.57
2018-08-10T23:31:40.530Z,58.50
2018-08-10T23:34:08.607Z,59.90
2018-08-10T23:36:36.715Z,60.15
2018-08-10T23:39:07.655Z,59.33
2018-08-10T23:41:35.743Z,60.20
2018-08-10T23:44:03.830Z,59.84
2018-08-10T23:46:31.920Z,59.81
2018-08-10T23:49:00.029Z,60.33
2018-08-10T23:51:28.139Z,61.09
2018-08-10T23:53:56.211Z,60.33
2018-08-10T23:56:24.286Z,60.30
2018-08-10T23:58:52.577Z,61.05
